Legnica, Poland
Current Conditions -  °F | °C
As of 12:30 PM on Saturday 22 Nov 2014 (Local Time) from EPWR Reporting Station
Haze Haze  
Wind Chill: 37°   Ceiling: 700
Heat Index: 41°   Visibility: 3mi
Dew Point: 37°   Wind: 6mph
Humidity: 87%   Direction: 130°SE
Pressure: 30.33"   Gusts: NA
Location:  51.21°N, 16.16°E
Report Text: EPWR 221030Z 13005KT 5000 BR BKN007 05/03 Q1027
Loading
Personal Weather Stations






























Interactive Weather Map New forecast layout! Learn more

10-Day Weather Forecast

Advertisements
Track Severe Weather on mobile